createdAt,value
2022-08-07T00:00:42.370Z,14.04
2022-08-07T00:03:10.445Z,13.92
2022-08-07T00:05:39.278Z,13.87
2022-08-07T00:08:10.246Z,13.84
2022-08-07T00:10:48.016Z,13.73
2022-08-07T00:13:23.823Z,13.81
2022-08-07T00:15:54.955Z,13.81
2022-08-07T00:18:27.057Z,13.75
2022-08-07T00:21:08.307Z,13.74
2022-08-07T00:23:51.146Z,13.79
2022-08-07T00:26:49.504Z,13.73
2022-08-07T00:29:06.525Z,13.61
2022-08-07T00:31:38.410Z,13.53
2022-08-07T00:34:09.935Z,13.52
2022-08-07T00:36:42.796Z,13.53
2022-08-07T00:39:16.920Z,13.52
2022-08-07T00:42:02.147Z,13.58
2022-08-07T00:44:38.395Z,13.60
2022-08-07T00:48:05.374Z,13.62
2022-08-07T00:50:19.565Z,13.57
2022-08-07T00:52:47.197Z,13.56
2022-08-07T00:55:17.447Z,13.49
2022-08-07T00:57:56.007Z,13.41
2022-08-07T01:00:25.357Z,13.33
2022-08-07T01:02:53.350Z,13.34
2022-08-07T01:05:24.681Z,13.35
2022-08-07T01:07:52.701Z,13.41
2022-08-07T01:10:23.037Z,13.47
2022-08-07T01:12:54.650Z,13.50
2022-08-07T01:16:00.657Z,13.49
2022-08-07T01:18:17.555Z,13.51
2022-08-07T01:20:58.521Z,13.51
2022-08-07T01:23:35.436Z,13.38
2022-08-07T01:26:12.066Z,13.31
2022-08-07T01:28:48.334Z,13.31
2022-08-07T01:31:27.877Z,13.19
2022-08-07T01:34:11.699Z,13.17
2022-08-07T01:36:44.223Z,13.14
2022-08-07T01:39:22.991Z,13.15
2022-08-07T01:42:37.146Z,13.20
2022-08-07T01:44:49.611Z,13.21
2022-08-07T01:48:20.585Z,13.15
2022-08-07T01:50:06.718Z,13.14
2022-08-07T01:52:49.413Z,13.10
2022-08-07T01:55:39.305Z,13.05
2022-08-07T01:58:29.451Z,13.01
2022-08-07T02:01:09.985Z,13.04
2022-08-07T02:04:01.142Z,13.04
2022-08-07T02:06:35.521Z,13.00
2022-08-07T02:09:11.642Z,12.96
2022-08-07T02:12:17.842Z,12.93
2022-08-07T02:14:57.402Z,12.86
2022-08-07T02:17:34.477Z,12.84
2022-08-07T02:20:10.080Z,12.82
2022-08-07T02:22:46.666Z,12.79
2022-08-07T02:26:10.906Z,12.74
2022-08-07T02:28:14.526Z,12.65
2022-08-07T02:30:55.302Z,12.64
2022-08-07T02:33:42.074Z,12.61
2022-08-07T02:36:30.820Z,12.61
2022-08-07T02:39:09.508Z,12.66
2022-08-07T02:41:54.246Z,12.60
2022-08-07T02:44:34.397Z,12.59
2022-08-07T02:47:05.652Z,12.54
2022-08-07T02:49:57.529Z,12.51
2022-08-07T02:52:54.749Z,12.48
2022-08-07T02:56:03.291Z,12.43
2022-08-07T02:58:27.290Z,12.39
2022-08-07T03:00:59.361Z,12.41
2022-08-07T03:03:49.459Z,12.38
2022-08-07T03:06:26.247Z,12.36
2022-08-07T03:09:07.498Z,12.41
2022-08-07T03:11:52.416Z,12.39
2022-08-07T03:14:28.241Z,12.42
2022-08-07T03:16:57.685Z,12.36
2022-08-07T03:19:28.991Z,12.28
2022-08-07T03:21:58.941Z,12.17
2022-08-07T03:24:28.225Z,12.13
2022-08-07T03:27:03.146Z,12.07
2022-08-07T03:29:52.843Z,12.01
2022-08-07T03:32:33.314Z,11.94
2022-08-07T03:35:17.905Z,11.91
2022-08-07T03:37:55.164Z,11.92
2022-08-07T03:40:30.756Z,11.99
2022-08-07T03:43:05.409Z,12.09
2022-08-07T03:45:48.457Z,12.13
2022-08-07T03:48:17.701Z,12.17
2022-08-07T03:50:56.262Z,12.13
2022-08-07T03:54:01.658Z,12.04
2022-08-07T03:56:33.204Z,12.01
2022-08-07T03:59:10.157Z,12.00
2022-08-07T04:01:46.052Z,11.98
2022-08-07T04:04:19.443Z,12.10
2022-08-07T04:06:54.550Z,12.11
2022-08-07T04:09:25.141Z,12.02
2022-08-07T04:12:24.512Z,12.02
2022-08-07T04:14:57.982Z,11.96
2022-08-07T04:18:57.970Z,11.96
2022-08-07T04:20:17.084Z,12.00
2022-08-07T04:22:53.418Z,11.98
2022-08-07T04:25:31.778Z,11.86
2022-08-07T04:28:10.327Z,11.79
2022-08-07T04:30:55.434Z,11.76
2022-08-07T04:33:29.734Z,11.81
2022-08-07T04:35:59.322Z,11.83
2022-08-07T04:38:29.418Z,11.81
2022-08-07T04:40:58.057Z,11.74
2022-08-07T04:44:13.142Z,11.70
2022-08-07T04:46:42.817Z,11.82
2022-08-07T04:49:58.199Z,11.86
2022-08-07T04:52:53.650Z,11.83
2022-08-07T04:58:15.788Z,11.79
2022-08-07T05:00:08.059Z,11.80
2022-08-07T05:02:16.889Z,11.91
2022-08-07T05:05:52.069Z,11.96
2022-08-07T05:08:59.260Z,11.85
2022-08-07T05:11:57.171Z,11.96
2022-08-07T05:14:55.214Z,11.96
2022-08-07T05:18:00.747Z,11.88
2022-08-07T05:20:13.113Z,11.92
2022-08-07T05:22:46.496Z,11.90
2022-08-07T05:25:25.936Z,11.93
2022-08-07T05:28:20.456Z,12.06
2022-08-07T05:30:54.402Z,12.07
2022-08-07T05:33:23.664Z,12.18
2022-08-07T05:35:55.597Z,12.17
2022-08-07T05:39:01.418Z,12.16
2022-08-07T05:41:16.653Z,12.31
2022-08-07T05:44:08.103Z,12.38
2022-08-07T05:46:43.011Z,12.37
2022-08-07T05:49:13.157Z,12.37
2022-08-07T05:51:46.359Z,12.41
2022-08-07T05:54:44.148Z,12.55
2022-08-07T05:57:08.137Z,12.82
2022-08-07T05:59:55.888Z,12.90
2022-08-07T06:02:31.191Z,13.09
2022-08-07T06:05:07.672Z,13.31
2022-08-07T06:08:13.648Z,13.56
2022-08-07T06:10:29.324Z,13.71
2022-08-07T06:12:57.773Z,13.89
2022-08-07T06:15:39.116Z,14.06
2022-08-07T06:18:13.883Z,14.20
2022-08-07T06:20:49.923Z,14.34
2022-08-07T06:23:45.858Z,14.39
2022-08-07T06:26:12.453Z,14.45
2022-08-07T06:28:56.923Z,14.49
2022-08-07T06:31:38.503Z,14.58
2022-08-07T06:34:15.334Z,14.73
2022-08-07T06:36:48.287Z,14.80
2022-08-07T06:40:16.311Z,14.89
2022-08-07T06:42:37.286Z,14.96
2022-08-07T06:45:37.791Z,15.11
2022-08-07T06:48:06.663Z,15.18
2022-08-07T06:50:47.951Z,15.23
2022-08-07T06:55:29.757Z,15.31
2022-08-07T06:56:15.312Z,15.47
2022-08-07T07:00:11.457Z,15.57
2022-08-07T07:01:43.679Z,15.68
2022-08-07T07:04:32.285Z,15.79
2022-08-07T07:07:19.058Z,15.89
2022-08-07T07:09:55.393Z,16.00
2022-08-07T07:12:48.887Z,16.15
2022-08-07T07:15:32.498Z,16.28
2022-08-07T07:18:48.119Z,16.44
2022-08-07T07:21:27.351Z,16.62
2022-08-07T07:24:16.751Z,16.75
2022-08-07T07:26:52.536Z,16.87
2022-08-07T07:29:40.246Z,17.00
2022-08-07T07:32:17.406Z,17.14
2022-08-07T07:34:55.095Z,17.25
2022-08-07T07:37:44.455Z,17.32
2022-08-07T07:40:26.165Z,17.45
2022-08-07T07:42:57.792Z,17.55
2022-08-07T07:46:38.539Z,17.65
2022-08-07T07:48:36.005Z,17.78
2022-08-07T07:51:07.996Z,17.88
2022-08-07T07:53:51.745Z,18.01
2022-08-07T07:56:30.005Z,18.14
2022-08-07T07:59:06.207Z,18.22
2022-08-07T08:02:03.775Z,18.35
2022-08-07T08:04:28.577Z,18.46
2022-08-07T08:07:02.834Z,18.59
2022-08-07T08:09:52.476Z,18.73
2022-08-07T08:12:51.270Z,18.88
2022-08-07T08:15:14.732Z,19.01
2022-08-07T08:17:57.334Z,19.13
2022-08-07T08:20:33.076Z,19.31
2022-08-07T08:23:26.575Z,19.43
2022-08-07T08:26:27.011Z,19.53
2022-08-07T08:28:58.417Z,19.67
2022-08-07T08:31:58.705Z,19.76
2022-08-07T08:34:34.929Z,19.88
2022-08-07T08:37:10.007Z,19.93
2022-08-07T08:39:58.403Z,20.03
2022-08-07T08:42:45.146Z,20.08
2022-08-07T08:45:41.840Z,20.13
2022-08-07T08:48:38.524Z,20.31
2022-08-07T08:51:49.677Z,20.45
2022-08-07T08:54:41.551Z,20.49
2022-08-07T08:57:35.031Z,20.54
2022-08-07T09:00:15.267Z,20.52
2022-08-07T09:03:02.046Z,20.64
2022-08-07T09:05:51.790Z,20.80
2022-08-07T09:08:41.875Z,20.87
2022-08-07T09:11:24.868Z,20.84
2022-08-07T09:14:40.648Z,20.84
2022-08-07T09:18:07.157Z,20.90
2022-08-07T09:21:57.940Z,20.97
2022-08-07T09:24:58.458Z,21.08
2022-08-07T09:30:04.426Z,21.07
2022-08-07T09:31:19.618Z,21.12
2022-08-07T09:34:09.058Z,21.22
2022-08-07T09:37:00.587Z,21.40
2022-08-07T09:39:54.148Z,21.51
2022-08-07T09:43:14.522Z,21.58
2022-08-07T09:47:52.607Z,21.58
2022-08-07T09:50:19.121Z,21.49
2022-08-07T09:52:53.934Z,21.53
2022-08-07T09:56:03.356Z,21.59
2022-08-07T09:59:14.092Z,21.63
2022-08-07T10:02:16.753Z,21.67
2022-08-07T10:04:55.093Z,21.70
2022-08-07T10:08:06.011Z,21.76
2022-08-07T10:11:59.801Z,21.76
2022-08-07T10:14:11.388Z,21.74
2022-08-07T10:17:14.310Z,21.90
2022-08-07T10:20:34.538Z,21.94
2022-08-07T10:24:06.371Z,21.95
2022-08-07T10:27:06.709Z,22.06
2022-08-07T10:30:06.660Z,22.16
2022-08-07T10:34:04.096Z,22.11
2022-08-07T10:37:09.287Z,22.17
2022-08-07T10:40:20.961Z,22.23
2022-08-07T10:43:13.421Z,22.32
2022-08-07T10:45:58.289Z,22.32
2022-08-07T10:49:14.307Z,22.40
2022-08-07T10:52:13.334Z,22.50
2022-08-07T10:55:01.293Z,22.58
2022-08-07T10:58:04.257Z,22.66
2022-08-07T11:00:50.650Z,22.81
2022-08-07T11:03:42.933Z,22.93
2022-08-07T11:06:29.618Z,23.14
2022-08-07T11:09:11.472Z,23.30
2022-08-07T11:12:19.101Z,23.30
2022-08-07T11:15:14.449Z,23.20
2022-08-07T11:18:04.580Z,23.23
2022-08-07T11:20:59.953Z,23.37
2022-08-07T11:23:59.298Z,23.53
2022-08-07T11:27:17.533Z,23.63
2022-08-07T11:30:18.470Z,23.73
2022-08-07T11:33:01.211Z,23.91
2022-08-07T11:35:58.909Z,24.08
2022-08-07T11:38:43.700Z,24.22
2022-08-07T11:41:28.272Z,24.27
2022-08-07T11:44:36.642Z,24.31
2022-08-07T11:47:55.903Z,24.35
2022-08-07T11:50:57.381Z,24.43
2022-08-07T11:54:00.927Z,24.52
2022-08-07T11:56:45.941Z,24.53
2022-08-07T12:00:11.592Z,24.62
2022-08-07T12:03:41.348Z,24.77
2022-08-07T12:06:56.253Z,24.91
2022-08-07T12:09:42.717Z,25.05
2022-08-07T12:12:25.794Z,25.04
2022-08-07T12:15:05.419Z,25.10
2022-08-07T12:18:22.338Z,25.21
2022-08-07T12:21:21.001Z,25.16
2022-08-07T12:24:37.475Z,25.08
2022-08-07T12:27:18.553Z,25.20
2022-08-07T12:30:08.883Z,25.29
2022-08-07T12:32:58.470Z,25.42
2022-08-07T12:35:31.065Z,25.42
2022-08-07T12:38:10.637Z,25.54
2022-08-07T12:40:47.360Z,25.59
2022-08-07T12:44:02.315Z,25.70
2022-08-07T12:46:32.429Z,25.78
2022-08-07T12:49:40.138Z,25.89
2022-08-07T12:52:14.706Z,26.06
2022-08-07T12:55:17.929Z,26.06
2022-08-07T12:58:00.226Z,26.10
2022-08-07T13:01:04.713Z,26.11
2022-08-07T13:04:10.337Z,26.08
2022-08-07T13:07:02.462Z,26.24
2022-08-07T13:10:21.693Z,26.30
2022-08-07T13:12:52.477Z,26.26
2022-08-07T13:15:39.686Z,26.25
2022-08-07T13:18:28.334Z,26.27
2022-08-07T13:21:14.502Z,26.39
2022-08-07T13:24:23.566Z,26.52
2022-08-07T13:27:13.406Z,26.53
2022-08-07T13:29:56.145Z,26.54
2022-08-07T13:32:38.583Z,26.63
2022-08-07T13:36:00.467Z,26.82
2022-08-07T13:38:45.210Z,27.00
2022-08-07T13:41:31.917Z,26.90
2022-08-07T13:44:10.460Z,26.77
2022-08-07T13:46:48.968Z,26.77
2022-08-07T13:50:33.937Z,26.68
2022-08-07T13:52:33.552Z,26.62
2022-08-07T13:55:06.334Z,26.67
2022-08-07T13:57:38.805Z,26.73
2022-08-07T14:00:39.481Z,26.75
2022-08-07T14:03:09.012Z,26.75
2022-08-07T14:05:44.426Z,26.78
2022-08-07T14:08:20.292Z,26.81
2022-08-07T14:11:14.547Z,26.83
2022-08-07T14:13:45.062Z,26.78
2022-08-07T14:16:17.839Z,26.80
2022-08-07T14:18:57.232Z,26.79
2022-08-07T14:22:02.968Z,26.81
2022-08-07T14:24:42.031Z,26.85
2022-08-07T14:28:09.372Z,26.80
2022-08-07T14:30:11.394Z,26.72
2022-08-07T14:33:04.637Z,26.73
2022-08-07T14:35:58.609Z,26.76
2022-08-07T14:38:33.431Z,26.74
2022-08-07T14:41:14.634Z,26.87
2022-08-07T14:43:58.901Z,26.98
2022-08-07T14:46:38.119Z,26.97
2022-08-07T14:49:57.513Z,26.91
2022-08-07T14:52:25.827Z,26.85
2022-08-07T14:54:59.356Z,26.81
2022-08-07T14:57:58.739Z,26.92
2022-08-07T15:00:30.240Z,27.00
2022-08-07T15:03:15.672Z,27.08
2022-08-07T15:05:54.644Z,27.08
2022-08-07T15:08:50.379Z,27.02
2022-08-07T15:11:54.371Z,27.00
2022-08-07T15:14:23.246Z,26.92
2022-08-07T15:17:02.591Z,26.98
2022-08-07T15:22:33.443Z,27.06
2022-08-07T15:25:17.227Z,27.09
2022-08-07T15:28:33.153Z,27.17
2022-08-07T15:37:02.691Z,27.11
2022-08-07T15:39:17.312Z,27.03
2022-08-07T15:42:42.348Z,26.94
2022-08-07T15:44:52.689Z,26.91
2022-08-07T15:48:00.699Z,26.92
2022-08-07T15:50:37.944Z,26.96
2022-08-07T15:53:13.894Z,27.07
2022-08-07T15:55:53.622Z,27.14
2022-08-07T15:58:52.320Z,27.14
2022-08-07T16:01:39.755Z,27.01
2022-08-07T16:04:15.255Z,26.99
2022-08-07T16:06:51.621Z,26.96
2022-08-07T16:09:41.938Z,26.93
2022-08-07T16:12:30.609Z,26.93
2022-08-07T16:15:54.601Z,26.81
2022-08-07T16:18:51.720Z,26.84
2022-08-07T16:22:01.226Z,26.86
2022-08-07T16:24:40.781Z,26.87
2022-08-07T16:27:40.723Z,26.78
2022-08-07T16:30:31.963Z,26.83
2022-08-07T16:34:02.404Z,26.93
2022-08-07T16:36:19.662Z,26.93
2022-08-07T16:39:33.775Z,26.98
2022-08-07T16:42:55.098Z,26.88
2022-08-07T16:50:27.507Z,26.65
2022-08-07T16:54:01.674Z,26.67
2022-08-07T16:56:20.616Z,26.80
2022-08-07T16:59:14.770Z,26.82
2022-08-07T17:02:03.185Z,26.80
2022-08-07T17:04:51.186Z,26.81
2022-08-07T17:07:55.230Z,26.75
2022-08-07T17:10:54.653Z,26.72
2022-08-07T17:14:17.844Z,26.76
2022-08-07T17:16:56.847Z,26.83
2022-08-07T17:20:01.548Z,26.80
2022-08-07T17:22:39.210Z,26.73
2022-08-07T17:25:20.085Z,26.68
2022-08-07T17:28:20.013Z,26.68
2022-08-07T17:31:16.127Z,26.75
2022-08-07T17:34:34.353Z,26.79
2022-08-07T17:38:06.643Z,26.84
2022-08-07T17:40:14.486Z,26.82
2022-08-07T17:43:03.674Z,26.80
2022-08-07T17:46:11.838Z,26.78
2022-08-07T17:49:01.701Z,26.69
2022-08-07T17:52:01.095Z,26.67
2022-08-07T17:54:55.506Z,26.66
2022-08-07T17:58:02.075Z,26.64
2022-08-07T18:00:48.693Z,26.54
2022-08-07T18:04:04.554Z,26.47
2022-08-07T18:06:37.130Z,26.35
2022-08-07T18:09:09.667Z,26.26
2022-08-07T18:12:30.319Z,26.23
2022-08-07T18:15:23.260Z,26.21
2022-08-07T18:18:45.378Z,26.09
2022-08-07T18:21:55.268Z,26.00
2022-08-07T18:24:44.874Z,25.98
2022-08-07T18:28:33.952Z,25.90
2022-08-07T18:31:23.881Z,25.76
2022-08-07T18:34:37.562Z,25.69
2022-08-07T18:38:56.013Z,25.60
2022-08-07T18:40:50.218Z,25.53
2022-08-07T18:43:49.616Z,25.46
2022-08-07T18:46:32.378Z,25.34
2022-08-07T18:50:30.517Z,25.17
2022-08-07T18:53:04.829Z,24.99
2022-08-07T18:56:31.728Z,24.84
2022-08-07T18:59:58.458Z,24.76
2022-08-07T19:02:55.899Z,24.67
2022-08-07T19:06:01.912Z,24.53
2022-08-07T19:08:54.711Z,24.36
2022-08-07T19:11:36.243Z,24.21
2022-08-07T19:14:23.609Z,24.07
2022-08-07T19:17:04.930Z,23.90
2022-08-07T19:20:07.523Z,23.84
2022-08-07T19:23:56.972Z,23.76
2022-08-07T19:26:23.846Z,23.58
2022-08-07T19:31:01.413Z,23.44
2022-08-07T19:32:08.008Z,23.30
2022-08-07T19:34:57.160Z,23.17
2022-08-07T19:37:55.342Z,23.03
2022-08-07T19:40:31.667Z,22.82
2022-08-07T19:43:43.548Z,22.64
2022-08-07T19:46:10.167Z,22.48
2022-08-07T19:48:54.005Z,22.36
2022-08-07T19:51:52.812Z,22.16
2022-08-07T19:54:34.344Z,21.90
2022-08-07T19:58:02.405Z,21.75
2022-08-07T20:00:29.061Z,21.65
2022-08-07T20:03:33.775Z,21.46
2022-08-07T20:06:03.846Z,21.32
2022-08-07T20:08:40.987Z,21.24
2022-08-07T20:11:34.036Z,21.14
2022-08-07T20:14:20.835Z,21.05
2022-08-07T20:16:56.385Z,20.91
2022-08-07T20:19:48.074Z,20.77
2022-08-07T20:22:28.999Z,20.68
2022-08-07T20:25:06.253Z,20.56
2022-08-07T20:27:46.087Z,20.42
2022-08-07T20:30:22.488Z,20.30
2022-08-07T20:32:55.786Z,20.18
2022-08-07T20:35:34.366Z,20.04
2022-08-07T20:38:06.719Z,19.89
2022-08-07T20:40:51.516Z,19.76
2022-08-07T20:43:26.622Z,19.66
2022-08-07T20:46:27.397Z,19.62
2022-08-07T20:49:55.146Z,19.50
2022-08-07T20:51:40.646Z,19.44
2022-08-07T20:54:30.153Z,19.47
2022-08-07T20:57:08.389Z,19.52
2022-08-07T21:00:07.317Z,19.58
2022-08-07T21:02:53.930Z,19.58
2022-08-07T21:05:51.442Z,19.51
2022-08-07T21:08:37.579Z,19.43
2022-08-07T21:11:14.407Z,19.42
2022-08-07T21:14:29.341Z,19.43
2022-08-07T21:18:00.706Z,19.39
2022-08-07T21:20:00.663Z,19.38
2022-08-07T21:22:44.731Z,19.38
2022-08-07T21:25:59.017Z,19.40
2022-08-07T21:28:51.063Z,19.43
2022-08-07T21:31:49.987Z,19.47
2022-08-07T21:34:31.893Z,19.43
2022-08-07T21:37:09.566Z,19.40
2022-08-07T21:39:56.475Z,19.39
2022-08-07T21:42:46.111Z,19.39
2022-08-07T21:46:07.763Z,19.36
2022-08-07T21:48:34.458Z,19.35
2022-08-07T21:51:27.496Z,19.35
2022-08-07T21:54:05.370Z,19.34
2022-08-07T21:57:03.097Z,19.34
2022-08-07T22:00:06.265Z,19.33
2022-08-07T22:02:45.964Z,19.29
2022-08-07T22:05:21.768Z,19.27
2022-08-07T22:08:10.337Z,19.26
2022-08-07T22:10:42.347Z,19.23
2022-08-07T22:13:14.394Z,19.21
2022-08-07T22:16:44.520Z,19.21
2022-08-07T22:19:29.253Z,19.18
2022-08-07T22:22:44.711Z,19.13
2022-08-07T22:25:26.541Z,19.09
2022-08-07T22:28:31.439Z,19.06
2022-08-07T22:32:06.468Z,19.00
2022-08-07T22:34:55.422Z,18.92
2022-08-07T22:38:02.687Z,18.90
2022-08-07T22:40:57.006Z,18.89
2022-08-07T22:43:34.055Z,18.86
2022-08-07T22:47:02.151Z,18.78
2022-08-07T22:50:01.206Z,18.72
2022-08-07T22:54:05.189Z,18.66
2022-08-07T22:56:33.181Z,18.59
2022-08-07T22:59:28.534Z,18.46
2022-08-07T23:02:24.652Z,18.40
2022-08-07T23:06:07.148Z,18.39
2022-08-07T23:08:47.951Z,18.36
2022-08-07T23:11:59.376Z,18.30
2022-08-07T23:14:48.277Z,18.30
2022-08-07T23:17:32.928Z,18.29
2022-08-07T23:20:40.768Z,18.28
2022-08-07T23:24:06.782Z,18.26
2022-08-07T23:27:11.135Z,18.27
2022-08-07T23:30:37.094Z,18.24
2022-08-07T23:34:35.499Z,18.25
2022-08-07T23:36:22.936Z,18.23
2022-08-07T23:39:14.064Z,18.23
2022-08-07T23:42:08.203Z,18.20
2022-08-07T23:45:07.377Z,18.12
2022-08-07T23:48:10.819Z,18.08
2022-08-07T23:53:01.378Z,17.95
2022-08-07T23:55:02.741Z,17.79
2022-08-07T23:57:52.700Z,17.55
